Palmali Voyager — 9HXP7 — position and weather

sailwx.info

Track history (hours):
 
Tides and Currents Weather Stations Pressure Air Temp Water Temp Dewpoint Dewpoint Depression Visibility Wind Speed Wind Dir Waves Ship Positions

Palmali Voyager

Last reported at 2018-Apr-20 03:10 UTC. Time now 2018-Apr-23 07:50 UTC.
Position N 45°29' E 036°47'.

Length 140 m; draft 3.4 m.

MMSI: 215695000.

Date/timePositionNaut miles runAvg speedWind from/ knotsBaromVisibWave heightAir tempDewpointWater temp
2018-Apr-20 03:10N 45°29' E 036°47'1 7.5
2018-Apr-20 03:00N 45°28' E 036°46'4 7.9
2018-Apr-20 02:30N 45°25' E 036°43'4 7.5
2018-Apr-20 02:00N 45°22' E 036°40'4 7.1
2018-Apr-20 01:30N 45°20' E 036°36'8 4.7
2018-Apr-19 23:52N 45°13' E 036°30'0 0.1
2018-Apr-19 23:25N 45°14' E 036°30'0 0.0
2018-Apr-19 22:51N 45°14' E 036°30'0 0.2
2018-Apr-19 22:28N 45°14' E 036°30'0 0.0
2018-Apr-19 21:58N 45°14' E 036°30'0 0.1
2018-Apr-19 20:28N 45°14' E 036°30'0 0.0
2018-Apr-19 19:33N 45°14' E 036°30'0 0.0
2018-Apr-19 19:30N 45°14' E 036°30'0 0.0
2018-Apr-19 18:59N 45°14' E 036°30'0 0.1
2018-Apr-19 17:18N 45°13' E 036°30'0 0.1
2018-Apr-19 16:36N 45°13' E 036°30'0 0.0
2018-Apr-19 16:30N 45°13' E 036°30'0 0.0
2018-Apr-19 15:58N 45°13' E 036°30'2 1.6
2018-Apr-19 14:24N 45°11' E 036°30'7 0.5
2018-Apr-18 22:18N 45°18' E 036°30'2 6.2
2018-Apr-18 21:59N 45°19' E 036°33'3 6.0
2018-Apr-18 21:30N 45°20' E 036°37'3 5.8
2018-Apr-18 21:01N 45°22' E 036°40'3 5.7
2018-Apr-18 20:30N 45°25' E 036°41'3 6.6
2018-Apr-18 20:01N 45°28' E 036°39'1 2.2
2018-Apr-18 19:22N 45°29' E 036°38'0 0.0
2018-Apr-18 17:13N 45°29' E 036°38'0 0.1
2018-Apr-18 16:39N 45°29' E 036°38'0 0.0
2018-Apr-18 16:13N 45°29' E 036°38'0 0.0
2018-Apr-18 15:59N 45°29' E 036°38'0 0.0
2018-Apr-18 15:01N 45°29' E 036°38'0 0.0
2018-Apr-18 14:11N 45°29' E 036°38'0 0.0
2018-Apr-18 13:59N 45°29' E 036°38'0 0.1
2018-Apr-18 13:25N 45°29' E 036°38'0 0.0
2018-Apr-18 12:44N 45°29' E 036°38'0 0.0
2018-Apr-18 11:37N 45°29' E 036°38'0 0.0
2018-Apr-18 11:30N 45°29' E 036°38'0 0.0
2018-Apr-18 10:45N 45°29' E 036°38'0 0.0
2018-Apr-18 10:29N 45°29' E 036°38'0 0.0
2018-Apr-18 09:57N 45°29' E 036°38'0 0.1
2018-Apr-18 09:11N 45°29' E 036°38'0 0.0
2018-Apr-18 08:59N 45°29' E 036°38'0 0.2
2018-Apr-18 07:56N 45°29' E 036°38'3 6.6
2018-Apr-18 07:28N 45°32' E 036°41'  
2018-Apr-12 23:20N 45°30' E 036°47'3 7.8
2018-Apr-12 23:00N 45°28' E 036°45'4 7.8
2018-Apr-12 22:30N 45°24' E 036°42'4 7.2
2018-Apr-12 22:00N 45°21' E 036°40'3 6.0
2018-Apr-12 21:30N 45°20' E 036°36'3 6.5
2018-Apr-12 21:00N 45°19' E 036°32'3 5.8
2018-Apr-12 20:27N 45°16' E 036°29'  
Track history (hours):
 
Tides and Currents Weather Stations Pressure Air Temp Water Temp Dewpoint Dewpoint Depression Visibility Wind Speed Wind Dir Waves Ship Positions

Palmali Voyager

Last reported at 2018-Apr-20 03:10 UTC. Time now 2018-Apr-23 07:50 UTC.
Position N 45°29' E 036°47'.

Length 140 m; draft 3.4 m.

MMSI: 215695000.

Date/timePositionNaut miles runAvg speedWind from/ knotsBaromVisibWave heightAir tempDewpointWater temp
2018-Apr-20 03:10N 45°29' E 036°47'1 7.5
2018-Apr-20 03:00N 45°28' E 036°46'4 7.9
2018-Apr-20 02:30N 45°25' E 036°43'4 7.5
2018-Apr-20 02:00N 45°22' E 036°40'4 7.1
2018-Apr-20 01:30N 45°20' E 036°36'8 4.7
2018-Apr-19 23:52N 45°13' E 036°30'0 0.1
2018-Apr-19 23:25N 45°14' E 036°30'0 0.0
2018-Apr-19 22:51N 45°14' E 036°30'0 0.2
2018-Apr-19 22:28N 45°14' E 036°30'0 0.0
2018-Apr-19 21:58N 45°14' E 036°30'0 0.1
2018-Apr-19 20:28N 45°14' E 036°30'0 0.0
2018-Apr-19 19:33N 45°14' E 036°30'0 0.0
2018-Apr-19 19:30N 45°14' E 036°30'0 0.0
2018-Apr-19 18:59N 45°14' E 036°30'0 0.1
2018-Apr-19 17:18N 45°13' E 036°30'0 0.1
2018-Apr-19 16:36N 45°13' E 036°30'0 0.0
2018-Apr-19 16:30N 45°13' E 036°30'0 0.0
2018-Apr-19 15:58N 45°13' E 036°30'2 1.6
2018-Apr-19 14:24N 45°11' E 036°30'7 0.5
2018-Apr-18 22:18N 45°18' E 036°30'2 6.2
2018-Apr-18 21:59N 45°19' E 036°33'3 6.0
2018-Apr-18 21:30N 45°20' E 036°37'3 5.8
2018-Apr-18 21:01N 45°22' E 036°40'3 5.7
2018-Apr-18 20:30N 45°25' E 036°41'3 6.6
2018-Apr-18 20:01N 45°28' E 036°39'1 2.2
2018-Apr-18 19:22N 45°29' E 036°38'0 0.0
2018-Apr-18 17:13N 45°29' E 036°38'0 0.1
2018-Apr-18 16:39N 45°29' E 036°38'0 0.0
2018-Apr-18 16:13N 45°29' E 036°38'0 0.0
2018-Apr-18 15:59N 45°29' E 036°38'0 0.0
2018-Apr-18 15:01N 45°29' E 036°38'0 0.0
2018-Apr-18 14:11N 45°29' E 036°38'0 0.0
2018-Apr-18 13:59N 45°29' E 036°38'0 0.1
2018-Apr-18 13:25N 45°29' E 036°38'0 0.0
2018-Apr-18 12:44N 45°29' E 036°38'0 0.0
2018-Apr-18 11:37N 45°29' E 036°38'0 0.0
2018-Apr-18 11:30N 45°29' E 036°38'0 0.0
2018-Apr-18 10:45N 45°29' E 036°38'0 0.0
2018-Apr-18 10:29N 45°29' E 036°38'0 0.0
2018-Apr-18 09:57N 45°29' E 036°38'0 0.1
2018-Apr-18 09:11N 45°29' E 036°38'0 0.0
2018-Apr-18 08:59N 45°29' E 036°38'0 0.2
2018-Apr-18 07:56N 45°29' E 036°38'3 6.6
2018-Apr-18 07:28N 45°32' E 036°41'  
2018-Apr-12 23:20N 45°30' E 036°47'3 7.8
2018-Apr-12 23:00N 45°28' E 036°45'4 7.8
2018-Apr-12 22:30N 45°24' E 036°42'4 7.2
2018-Apr-12 22:00N 45°21' E 036°40'3 6.0
2018-Apr-12 21:30N 45°20' E 036°36'3 6.5
2018-Apr-12 21:00N 45°19' E 036°32'3 5.8
2018-Apr-12 20:27N 45°16' E 036°29'  

Dump ship's entire track history